GOBD Airport Information

Runway Information
Airport Frequencies
Airport Navaids
Airport Weather Information & NOTAM
ADDS - METARS form results

(1313 UTC 24 July 2021)
Data provider http://aviationweather.gov/metar/data/
 
METAR text: GOBD 241300Z 26009KT 210V310 9999 FEW013 31/20 Q1012 NOSIG
Conditions at: GOBD (DAKAR/DIAGNE , SN) observed 1300 UTC 24 July 2021
Temperature: 31.0°C (88°F)
Dewpoint: 20.0°C (68°F) [RH = 52%]
Pressure (altimeter): 29.88 inches Hg (1012.0 mb)
Winds: from the W (260 degrees) at 10 MPH (9 knots; 4.6 m/s)
Visibility: 6 or more miles (10+ km)
Ceiling: at least 12,000 feet AGL
Clouds: few clouds at 1300 feet AGL
Weather: no significant weather observed at this time

Forecast for: GOBD (DAKAR/DIAGNE , SN)
Text: TAF GOBD 241100Z 2412/2518 32012KT 9999 SCT013
Forecast period: 1200 UTC 24 July 2021 to 1800 UTC 25 July 2021
Forecast type: FROM: standard forecast or significant change
Winds: from the NW (320 degrees) at 14 MPH (12 knots; 6.2 m/s)
Visibility: 6 or more miles (10+ km)
Ceiling: at least 12,000 feet AGL
Clouds: scattered clouds at 1300 feet AGL
Weather: no significant weather forecast for this period